Time;durP1;ratioP1;P1;durP2;ratioP2;P2;SDS_P1;SDS_P2;PMS_P1;PMS_P2;Temp;Humidity;BMP_temperature;BMP_pressure;BME280_temperature;BME280_humidity;BME280_pressure;Samples;Min_cycle;Max_cycle;Signal;HPM_P1;HPM_P2
2023/03/11 00:00:54;;;;;;;13.30;6.60;;;;;;;8.10;70.90;96550.10;105212;1260;99525;-74
2023/03/11 00:03:27;;;;;;;14.40;6.60;;;;;;;8.03;70.94;96547.98;105391;1259;111329;-73
2023/03/11 00:05:57;;;;;;;15.00;7.20;;;;;;;7.96;70.84;96551.52;105135;1259;100805;-78
2023/03/11 00:08:24;;;;;;;14.60;7.30;;;;;;;7.90;70.82;96547.61;105131;1255;107348;-71
2023/03/11 00:10:54;;;;;;;14.50;7.00;;;;;;;7.83;71.12;96545.30;105330;1259;97874;-73
2023/03/11 00:13:20;;;;;;;14.00;7.20;;;;;;;7.78;71.27;96550.35;105443;1258;99771;-73
2023/03/11 00:15:49;;;;;;;14.60;7.10;;;;;;;7.73;71.14;96543.09;104703;1277;97975;-73
2023/03/11 00:18:17;;;;;;;14.50;6.90;;;;;;;7.70;71.11;96540.30;105019;1262;100904;-74
2023/03/11 00:20:45;;;;;;;14.20;6.40;;;;;;;7.67;71.28;96537.33;105370;1260;107585;-72
2023/03/11 00:23:13;;;;;;;15.90;6.60;;;;;;;7.67;71.28;96528.75;105280;1259;97972;-74
2023/03/11 00:25:42;;;;;;;14.50;7.30;;;;;;;7.65;71.33;96524.64;105355;1259;98424;-75
2023/03/11 00:28:10;;;;;;;16.20;6.70;;;;;;;7.66;71.46;96528.16;105277;1259;111344;-73
2023/03/11 00:30:38;;;;;;;16.10;6.90;;;;;;;7.66;71.45;96526.20;105119;1261;99278;-73
2023/03/11 00:33:06;;;;;;;16.90;7.70;;;;;;;7.66;71.52;96523.00;105241;1261;107265;-76
2023/03/11 00:35:34;;;;;;;14.50;6.40;;;;;;;7.67;71.62;96522.17;105402;1254;97937;-72
2023/03/11 00:38:05;;;;;;;16.00;7.00;;;;;;;7.68;71.64;96521.75;105146;1258;99800;-73
2023/03/11 00:40:35;;;;;;;12.00;6.10;;;;;;;7.69;71.49;96516.56;105269;1262;111302;-74
2023/03/11 00:43:02;;;;;;;13.00;6.10;;;;;;;7.70;71.55;96517.14;105075;1262;100540;-73
2023/03/11 00:45:30;;;;;;;11.60;5.90;;;;;;;7.71;71.76;96513.54;105493;1256;97947;-74
2023/03/11 00:47:57;;;;;;;15.20;6.40;;;;;;;7.72;71.56;96510.23;105198;1262;97954;-73
2023/03/11 00:50:29;;;;;;;12.40;5.60;;;;;;;7.74;71.93;96510.23;105375;1253;97978;-73
2023/03/11 00:52:56;;;;;;;11.00;5.40;;;;;;;7.75;72.00;96509.34;105153;1259;111409;-73
2023/03/11 00:55:26;;;;;;;12.00;5.50;;;;;;;7.78;71.81;96508.80;104876;1262;98081;-73
2023/03/11 00:57:54;;;;;;;13.30;6.00;;;;;;;7.79;71.79;96506.52;105135;1270;106466;-73
2023/03/11 01:00:23;;;;;;;12.30;5.90;;;;;;;7.81;71.75;96499.23;105525;1263;99283;-72
2023/03/11 01:02:51;;;;;;;10.00;5.40;;;;;;;7.82;71.93;96494.17;104984;1254;98433;-73
2023/03/11 01:05:25;;;;;;;11.50;5.40;;;;;;;7.84;71.95;96488.33;105205;1260;111381;-73
2023/03/11 01:07:52;;;;;;;10.40;5.00;;;;;;;7.85;72.01;96486.65;105197;1254;101542;-73
2023/03/11 01:10:18;;;;;;;13.10;5.60;;;;;;;7.87;71.79;96490.30;105241;1262;98122;-72
2023/03/11 01:12:45;;;;;;;9.80;4.90;;;;;;;7.88;71.89;96491.30;104911;1260;98355;-74
2023/03/11 01:15:20;;;;;;;10.80;5.20;;;;;;;7.89;72.15;96491.77;105200;1259;97883;-74
2023/03/11 01:17:47;;;;;;;10.40;4.70;;;;;;;7.89;72.03;96492.09;105071;1262;111266;-72
2023/03/11 01:20:14;;;;;;;12.20;5.00;;;;;;;7.90;72.13;96492.90;105103;1254;98872;-74
2023/03/11 01:22:40;;;;;;;8.60;4.50;;;;;;;7.90;72.13;96490.94;104999;1262;97953;-74
2023/03/11 01:25:10;;;;;;;10.10;4.80;;;;;;;7.90;72.13;96488.76;104859;1272;98094;-73
2023/03/11 01:27:38;;;;;;;8.40;4.40;;;;;;;7.91;72.25;96485.75;104983;1261;98434;-74
2023/03/11 01:30:05;;;;;;;6.80;3.80;;;;;;;7.91;72.24;96478.50;105157;1259;98034;-74
2023/03/11 01:32:31;;;;;;;8.10;4.10;;;;;;;7.92;72.30;96478.78;105148;1259;98859;-74
2023/03/11 01:34:58;;;;;;;6.50;3.40;;;;;;;7.92;72.26;96475.60;105115;1259;97945;-74
2023/03/11 01:37:25;;;;;;;6.20;3.30;;;;;;;7.93;72.43;96470.77;105386;1258;99285;-74
2023/03/11 01:39:51;;;;;;;5.60;3.00;;;;;;;7.93;72.29;96474.25;105270;1260;98017;-74
2023/03/11 01:42:19;;;;;;;6.40;3.30;;;;;;;7.93;72.27;96469.15;105408;1254;99283;-74
2023/03/11 01:44:46;;;;;;;6.10;3.30;;;;;;;7.92;72.31;96468.46;104693;1262;98105;-76
2023/03/11 01:47:12;;;;;;;6.20;3.10;;;;;;;7.92;72.41;96468.30;105350;1275;97947;-74
2023/03/11 01:49:42;;;;;;;7.50;3.80;;;;;;;7.93;72.34;96470.52;104956;1271;98075;-74
2023/03/11 01:52:08;;;;;;;7.00;3.30;;;;;;;7.93;72.42;96465.79;105228;1259;109905;-73
2023/03/11 01:54:40;;;;;;;8.90;3.50;;;;;;;7.93;72.27;96471.41;104975;1266;97970;-76
2023/03/11 01:57:13;;;;;;;5.20;3.10;;;;;;;7.93;72.37;96474.05;105401;1254;107381;-73
2023/03/11 01:59:47;;;;;;;7.40;3.30;;;;;;;7.92;72.54;96470.42;105354;1259;98104;-73
2023/03/11 02:02:22;;;;;;;5.10;3.20;;;;;;;7.92;72.63;96468.52;105144;1259;98450;-74
2023/03/11 02:04:50;;;;;;;6.80;3.30;;;;;;;7.90;72.52;96465.80;105270;1259;110692;-73
2023/03/11 02:07:18;;;;;;;5.30;3.10;;;;;;;7.90;72.78;96467.59;105258;1260;100806;-74
2023/03/11 02:09:44;;;;;;;6.30;3.50;;;;;;;7.90;72.48;96467.95;104952;1270;97871;-72
2023/03/11 02:12:13;;;;;;;8.20;3.60;;;;;;;7.90;72.73;96466.60;104811;1262;97993;-74
2023/03/11 02:14:44;;;;;;;6.70;3.30;;;;;;;7.89;72.71;96468.08;105156;1259;98439;-74
2023/03/11 02:17:11;;;;;;;5.80;3.30;;;;;;;7.88;72.64;96467.11;105174;1261;111100;-74
2023/03/11 02:20:12;;;;;;;7.20;3.40;;;;;;;7.87;72.50;96464.96;105112;1258;97940;-74
2023/03/11 02:22:41;;;;;;;5.50;2.80;;;;;;;7.84;72.64;96461.14;104728;1257;107528;-74
2023/03/11 02:25:31;;;;;;;6.50;3.50;;;;;;;7.83;72.75;96458.84;105064;1260;97979;-73
2023/03/11 02:28:00;;;;;;;5.20;3.20;;;;;;;7.81;72.93;96455.46;104925;1257;98369;-76
2023/03/11 02:30:28;;;;;;;5.70;2.80;;;;;;;7.81;72.79;96455.46;104974;1262;110969;-73
2023/03/11 02:32:56;;;;;;;4.50;3.00;;;;;;;7.82;72.82;96459.52;105179;1257;100903;-74
2023/03/11 02:35:23;;;;;;;8.30;3.20;;;;;;;7.81;72.76;96459.34;105200;1260;107595;-73
2023/03/11 02:37:52;;;;;;;6.50;3.50;;;;;;;7.81;72.98;96461.91;104910;1262;98008;-74
2023/03/11 02:40:21;;;;;;;6.10;3.10;;;;;;;7.80;72.91;96462.33;105154;1261;98507;-74
2023/03/11 02:42:52;;;;;;;6.00;3.60;;;;;;;7.79;72.85;96461.84;105099;1258;111243;-73
2023/03/11 02:45:22;;;;;;;9.90;4.00;;;;;;;7.81;73.09;96460.48;105126;1257;99457;-74
2023/03/11 02:47:51;;;;;;;7.30;3.60;;;;;;;7.79;72.84;96458.50;105106;1259;107751;-74
2023/03/11 02:50:18;;;;;;;6.40;3.30;;;;;;;7.78;72.92;96451.71;105369;1254;97985;-74
2023/03/11 02:52:48;;;;;;;6.90;3.50;;;;;;;7.79;72.95;96451.35;105173;1260;99271;-74
2023/03/11 02:55:16;;;;;;;7.40;3.60;;;;;;;7.78;73.04;96451.55;105139;1261;111127;-76
2023/03/11 02:57:44;;;;;;;8.40;3.80;;;;;;;7.78;73.25;96451.28;104973;1254;100961;-75
2023/03/11 03:00:14;;;;;;;8.30;3.90;;;;;;;7.77;73.24;96443.92;104954;1275;98018;-74
2023/03/11 03:02:42;;;;;;;6.70;3.60;;;;;;;7.75;73.32;96444.83;105481;1259;99006;-74
2023/03/11 03:05:10;;;;;;;7.40;3.40;;;;;;;7.74;73.37;96442.12;105399;1258;99601;-73
2023/03/11 03:07:37;;;;;;;6.40;3.40;;;;;;;7.73;73.20;96443.92;105335;1257;111065;-73
2023/03/11 03:10:05;;;;;;;6.30;3.40;;;;;;;7.73;73.21;96443.75;104997;1263;98019;-74
2023/03/11 03:12:32;;;;;;;8.10;3.60;;;;;;;7.73;73.28;96439.33;105357;1274;105726;-74
2023/03/11 03:14:58;;;;;;;4.70;3.10;;;;;;;7.73;73.15;96440.30;105417;1259;98424;-73
2023/03/11 03:17:25;;;;;;;6.00;3.80;;;;;;;7.72;73.24;96441.94;105254;1259;97931;-73
2023/03/11 03:19:51;;;;;;;7.90;3.70;;;;;;;7.71;73.34;96441.90;105148;1259;98011;-76
2023/03/11 03:22:19;;;;;;;7.70;3.60;;;;;;;7.69;73.50;96440.43;105425;1254;97950;-74
2023/03/11 03:24:46;;;;;;;5.60;3.40;;;;;;;7.70;73.36;96439.38;105371;1259;97933;-72
2023/03/11 03:27:12;;;;;;;10.30;3.90;;;;;;;7.69;73.42;96441.01;105255;1254;97919;-74
2023/03/11 03:29:39;;;;;;;8.00;3.60;;;;;;;7.69;73.21;96438.89;105184;1255;97978;-73
2023/03/11 03:32:05;;;;;;;5.40;3.50;;;;;;;7.69;73.33;96433.82;105027;1270;97951;-74
2023/03/11 03:34:32;;;;;;;7.40;3.70;;;;;;;7.68;73.27;96433.95;105275;1260;98128;-73
2023/03/11 03:36:59;;;;;;;8.30;3.60;;;;;;;7.67;73.48;96429.73;104836;1260;97864;-75
2023/03/11 03:39:26;;;;;;;7.40;4.30;;;;;;;7.68;73.38;96434.64;105226;1257;97953;-73
2023/03/11 03:41:56;;;;;;;9.60;3.70;;;;;;;7.67;73.53;96428.48;105193;1259;99560;-75
2023/03/11 03:44:23;;;;;;;10.40;4.20;;;;;;;7.68;73.59;96429.55;105236;1260;98580;-73
2023/03/11 03:46:49;;;;;;;7.10;3.80;;;;;;;7.68;73.62;96425.77;105060;1270;98059;-73
2023/03/11 03:49:16;;;;;;;7.10;3.70;;;;;;;7.68;73.53;96426.14;105227;1262;98060;-73
2023/03/11 03:51:43;;;;;;;9.90;3.80;;;;;;;7.67;73.63;96422.20;105173;1257;100023;-73
2023/03/11 03:54:10;;;;;;;8.90;4.30;;;;;;;7.67;73.58;96422.04;104934;1277;99902;-74
2023/03/11 03:56:36;;;;;;;7.70;3.80;;;;;;;7.66;73.71;96419.12;105184;1270;97976;-73
2023/03/11 03:59:03;;;;;;;6.60;3.80;;;;;;;7.65;73.65;96418.52;104993;1263;98071;-74
2023/03/11 04:01:29;;;;;;;9.40;4.00;;;;;;;7.64;73.71;96422.17;105397;1257;98033;-75
2023/03/11 04:03:56;;;;;;;6.70;3.60;;;;;;;7.64;73.72;96421.61;105448;1258;107650;-76
2023/03/11 04:06:25;;;;;;;7.20;3.70;;;;;;;7.64;73.79;96418.58;105343;1266;98021;-73
2023/03/11 04:08:53;;;;;;;7.40;3.70;;;;;;;7.64;73.67;96414.39;105401;1259;99797;-73
2023/03/11 04:11:20;;;;;;;13.70;5.40;;;;;;;7.65;73.62;96422.55;105238;1256;110813;-74
2023/03/11 04:13:47;;;;;;;12.80;4.90;;;;;;;7.65;73.59;96419.54;105470;1270;98044;-72
2023/03/11 04:16:17;;;;;;;10.20;4.70;;;;;;;7.66;73.62;96418.39;104973;1260;98066;-73
2023/03/11 04:18:45;;;;;;;15.40;6.20;;;;;;;7.66;73.66;96420.48;104955;1263;98027;-73
2023/03/11 04:21:11;;;;;;;17.30;7.90;;;;;;;7.67;73.76;96417.94;105050;1255;98383;-74
2023/03/11 04:23:38;;;;;;;19.50;8.10;;;;;;;7.67;73.97;96418.46;104792;1261;98052;-73
2023/03/11 04:26:04;;;;;;;11.00;3.80;;;;;;;7.68;73.65;96420.89;106846;1259;97989;-72
2023/03/11 04:28:31;;;;;;;9.50;3.90;;;;;;;7.68;73.84;96420.32;104932;1254;98722;-72
2023/03/11 04:30:58;;;;;;;8.20;3.50;;;;;;;7.69;73.70;96418.80;105009;1259;99161;-73
2023/03/11 04:33:24;;;;;;;7.10;3.60;;;;;;;7.70;73.86;96419.08;105383;1254;98446;-74
2023/03/11 04:35:51;;;;;;;9.60;4.20;;;;;;;7.71;73.46;96422.26;105445;1260;98047;-73
2023/03/11 04:38:18;;;;;;;12.10;3.70;;;;;;;7.71;73.81;96419.11;105283;1254;97933;-74
2023/03/11 04:40:45;;;;;;;9.60;4.90;;;;;;;7.69;73.65;96419.83;105150;1270;97992;-73
2023/03/11 04:43:12;;;;;;;7.80;4.40;;;;;;;7.68;73.77;96420.35;104902;1254;111688;-74
2023/03/11 04:45:39;;;;;;;14.30;7.50;;;;;;;7.66;73.55;96417.40;108588;1254;95851;-74
2023/03/11 04:48:06;;;;;;;8.80;4.50;;;;;;;7.63;73.73;96414.30;108418;1260;95756;-78
2023/03/11 04:50:33;;;;;;;8.40;4.00;;;;;;;7.60;73.60;96410.16;108435;1254;96273;-74
2023/03/11 04:53:00;;;;;;;11.10;4.70;;;;;;;7.58;73.50;96406.85;106315;1260;96322;-74
2023/03/11 04:55:26;;;;;;;11.40;4.40;;;;;;;7.57;73.44;96405.59;108574;1254;95681;-76
2023/03/11 04:57:54;;;;;;;9.40;4.00;;;;;;;7.55;73.58;96410.83;108205;1257;95858;-74
2023/03/11 05:00:23;;;;;;;8.70;3.70;;;;;;;7.54;73.52;96413.42;105249;1268;98783;-73
2023/03/11 05:02:50;;;;;;;7.80;3.40;;;;;;;7.54;73.61;96406.92;105270;1258;98420;-74
2023/03/11 05:05:20;;;;;;;8.20;3.90;;;;;;;7.53;73.61;96400.35;105210;1256;97947;-74
2023/03/11 05:07:47;;;;;;;8.80;3.50;;;;;;;7.51;73.56;96403.48;105196;1263;99798;-76
2023/03/11 05:10:20;;;;;;;10.70;3.50;;;;;;;7.50;73.41;96401.72;105138;1259;97950;-73
2023/03/11 05:12:50;;;;;;;6.60;3.60;;;;;;;7.49;73.53;96399.15;105023;1271;98062;-74
2023/03/11 05:15:18;;;;;;;8.40;3.90;;;;;;;7.48;73.66;96400.48;105260;1260;98909;-76
2023/03/11 05:17:45;;;;;;;8.00;4.20;;;;;;;7.47;73.75;96397.64;105018;1263;110907;-73
2023/03/11 05:20:12;;;;;;;8.20;4.20;;;;;;;7.44;73.55;96396.80;105255;1260;97957;-73
2023/03/11 05:22:41;;;;;;;13.00;4.40;;;;;;;7.43;73.51;96397.94;105054;1254;107668;-73
2023/03/11 05:25:08;;;;;;;10.80;4.90;;;;;;;7.43;73.83;96391.47;105400;1267;99262;-73
2023/03/11 05:27:35;;;;;;;14.00;5.30;;;;;;;7.44;73.65;96393.65;105333;1269;98032;-73
2023/03/11 05:30:02;;;;;;;10.80;5.40;;;;;;;7.43;73.74;96393.18;105029;1260;98578;-72
2023/03/11 05:32:29;;;;;;;17.80;7.20;;;;;;;7.44;73.82;96395.61;105007;1259;97957;-74
2023/03/11 05:34:56;;;;;;;18.30;8.10;;;;;;;7.43;73.81;96399.87;105469;1259;97970;-73
2023/03/11 05:37:22;;;;;;;19.60;8.00;;;;;;;7.44;73.69;96405.85;105668;1259;98382;-72
2023/03/11 05:39:51;;;;;;;13.80;5.90;;;;;;;7.44;73.79;96409.55;105071;1268;98415;-73
2023/03/11 05:42:18;;;;;;;19.40;7.70;;;;;;;7.44;73.74;96409.33;105290;1254;100615;-74
2023/03/11 05:44:47;;;;;;;6.80;3.60;;;;;;;7.44;73.31;96409.32;105182;1258;107290;-73
2023/03/11 05:47:16;;;;;;;6.50;3.00;;;;;;;7.43;73.36;96408.73;107094;1260;97999;-74
2023/03/11 05:49:42;;;;;;;5.60;2.70;;;;;;;7.43;73.29;96409.41;104389;1269;98034;-76
2023/03/11 05:52:09;;;;;;;8.90;2.70;;;;;;;7.43;73.33;96411.04;104463;1262;99391;-74
2023/03/11 05:54:36;;;;;;;5.10;2.10;;;;;;;7.43;73.13;96404.00;108585;1254;96080;-74
2023/03/11 05:57:02;;;;;;;4.10;2.10;;;;;;;7.42;73.08;96406.76;108561;1256;95642;-74
2023/03/11 05:59:31;;;;;;;6.10;2.20;;;;;;;7.41;73.03;96406.84;108624;1254;96430;-74
2023/03/11 06:01:57;;;;;;;4.90;2.00;;;;;;;7.42;73.20;96410.64;108576;1254;110834;-75
2023/03/11 06:04:24;;;;;;;7.50;2.70;;;;;;;7.43;72.89;96413.88;108117;1259;97848;-74
2023/03/11 06:06:52;;;;;;;4.50;2.10;;;;;;;7.44;73.09;96419.88;105147;1260;98275;-76
2023/03/11 06:09:18;;;;;;;5.10;2.10;;;;;;;7.48;73.26;96424.29;108540;1254;95853;-74
2023/03/11 06:11:45;;;;;;;7.00;2.60;;;;;;;7.53;73.08;96429.41;108594;1254;95640;-77
2023/03/11 06:14:13;;;;;;;6.90;2.50;;;;;;;7.57;72.56;96428.99;108512;1254;95939;-75
2023/03/11 06:16:40;;;;;;;9.00;2.90;;;;;;;7.61;72.46;96433.18;108353;1254;108294;-75
2023/03/11 06:19:07;;;;;;;13.30;5.10;;;;;;;7.65;72.58;96434.56;108389;1254;95865;-75
2023/03/11 06:21:34;;;;;;;7.80;2.90;;;;;;;7.69;72.50;96438.05;107483;1258;97871;-74
2023/03/11 06:24:01;;;;;;;5.00;2.40;;;;;;;7.71;72.98;96441.14;105299;1259;98059;-74
2023/03/11 06:26:27;;;;;;;6.10;2.80;;;;;;;7.74;72.67;96445.48;105799;1263;97934;-74
2023/03/11 06:28:54;;;;;;;9.20;3.10;;;;;;;7.72;72.36;96448.48;105321;1260;98869;-73
2023/03/11 06:31:24;;;;;;;7.20;3.00;;;;;;;7.69;72.77;96453.33;105444;1258;98577;-74
2023/03/11 06:33:50;;;;;;;5.10;2.70;;;;;;;7.68;72.50;96464.73;104916;1262;111555;-73
2023/03/11 06:36:19;;;;;;;8.50;3.60;;;;;;;7.64;72.57;96462.73;105067;1256;98013;-75
2023/03/11 06:38:47;;;;;;;8.60;3.70;;;;;;;7.61;72.68;96464.73;104700;1260;107374;-73
2023/03/11 06:41:16;;;;;;;5.00;2.50;;;;;;;7.59;71.95;96467.40;104937;1270;99415;-74
2023/03/11 06:43:43;;;;;;;6.20;3.10;;;;;;;7.56;71.61;96460.17;105120;1260;98447;-73
2023/03/11 06:46:21;;;;;;;7.90;2.70;;;;;;;7.54;72.02;96462.64;104849;1260;97977;-74
2023/03/11 06:48:52;;;;;;;6.40;2.90;;;;;;;7.52;70.59;96463.53;105056;1256;100885;-73
2023/03/11 06:51:19;;;;;;;6.00;3.10;;;;;;;7.48;70.20;96459.73;105093;1278;107723;-74
2023/03/11 06:53:53;;;;;;;6.00;2.70;;;;;;;7.46;71.35;96463.42;105247;1259;97952;-73
2023/03/11 06:56:21;;;;;;;8.00;2.60;;;;;;;7.44;71.63;96473.20;104855;1259;98453;-73
2023/03/11 06:58:49;;;;;;;5.20;2.60;;;;;;;7.41;71.09;96475.42;104793;1269;111303;-74
2023/03/11 07:01:19;;;;;;;4.10;2.30;;;;;;;7.35;70.42;96475.71;105169;1264;98328;-76
2023/03/11 07:03:47;;;;;;;11.50;3.40;;;;;;;7.29;70.72;96474.99;105289;1256;107774;-73
2023/03/11 07:06:25;;;;;;;5.90;2.80;;;;;;;7.26;70.44;96478.70;105228;1267;97999;-74
2023/03/11 07:08:52;;;;;;;6.40;2.90;;;;;;;7.21;70.51;96484.42;105144;1260;98414;-73
2023/03/11 07:11:25;;;;;;;8.00;2.90;;;;;;;7.18;71.23;96486.54;105157;1257;97973;-73
2023/03/11 07:13:54;;;;;;;7.60;2.90;;;;;;;7.16;71.21;96490.59;105424;1270;100870;-73
2023/03/11 07:16:25;;;;;;;8.60;2.90;;;;;;;7.13;71.02;96489.64;105271;1254;107699;-73
2023/03/11 07:18:55;;;;;;;12.30;4.70;;;;;;;7.12;71.12;96492.41;105033;1259;99222;-74
2023/03/11 07:21:22;;;;;;;29.30;15.80;;;;;;;7.11;70.81;96493.86;104975;1261;97984;-73
2023/03/11 07:23:53;;;;;;;9.80;4.70;;;;;;;7.09;70.51;96489.58;105153;1267;98894;-73
2023/03/11 07:26:21;;;;;;;10.90;4.90;;;;;;;7.03;70.74;96485.54;105005;1262;100855;-73
2023/03/11 07:28:49;;;;;;;21.70;10.00;;;;;;;7.00;70.46;96485.30;105275;1277;107646;-74
2023/03/11 07:31:19;;;;;;;10.60;4.80;;;;;;;6.93;70.01;96489.51;105405;1260;98040;-75
2023/03/11 07:33:47;;;;;;;8.60;4.30;;;;;;;6.89;70.57;96482.31;105438;1260;98370;-74
2023/03/11 07:36:16;;;;;;;17.70;8.00;;;;;;;6.88;70.93;96487.38;105100;1260;98344;-73
2023/03/11 07:38:44;;;;;;;8.10;4.00;;;;;;;6.89;71.26;96486.41;105183;1269;100897;-73
2023/03/11 07:41:12;;;;;;;7.40;3.00;;;;;;;6.88;70.68;96490.59;105423;1258;106583;-73
2023/03/11 07:43:41;;;;;;;5.90;2.70;;;;;;;6.84;70.57;96496.18;105239;1258;97946;-75
2023/03/11 07:46:15;;;;;;;11.60;3.30;;;;;;;6.83;70.85;96497.13;105008;1270;98367;-73
2023/03/11 07:48:41;;;;;;;8.50;3.90;;;;;;;6.86;70.83;96500.30;105408;1260;111287;-73
2023/03/11 07:51:18;;;;;;;17.00;5.60;;;;;;;6.85;70.93;96502.08;104976;1273;98069;-74
2023/03/11 07:53:45;;;;;;;11.50;4.50;;;;;;;6.84;71.10;96507.84;105100;1269;107186;-75
2023/03/11 07:56:15;;;;;;;11.80;4.00;;;;;;;6.80;70.88;96510.70;104922;1270;98082;-74
2023/03/11 07:58:42;;;;;;;12.80;5.00;;;;;;;6.72;70.51;96528.92;105510;1254;99240;-73
2023/03/11 08:01:17;;;;;;;14.40;5.40;;;;;;;6.57;70.04;96538.45;105491;1260;111240;-74
2023/03/11 08:03:46;;;;;;;8.90;3.70;;;;;;;6.44;70.30;96534.44;105287;1259;101110;-74
2023/03/11 08:06:19;;;;;;;12.90;4.70;;;;;;;6.37;70.36;96535.10;105000;1270;107089;-74
2023/03/11 08:08:47;;;;;;;7.80;3.90;;;;;;;6.34;70.74;96532.86;104930;1267;99259;-76
2023/03/11 08:11:15;;;;;;;10.20;4.40;;;;;;;6.37;70.89;96536.30;105329;1260;98424;-73
2023/03/11 08:13:43;;;;;;;7.30;3.40;;;;;;;6.38;70.80;96531.94;105011;1260;110965;-72
2023/03/11 08:16:13;;;;;;;8.40;3.40;;;;;;;6.35;70.56;96527.71;105326;1259;100938;-74
2023/03/11 08:18:40;;;;;;;3.80;2.70;;;;;;;6.33;70.80;96534.23;105113;1268;107778;-73
2023/03/11 08:21:11;;;;;;;6.90;2.90;;;;;;;6.34;70.55;96534.13;105225;1259;97992;-74
2023/03/11 08:23:37;;;;;;;10.80;5.10;;;;;;;6.36;70.91;96533.79;105130;1260;98790;-74
2023/03/11 08:26:12;;;;;;;6.60;3.50;;;;;;;6.44;71.05;96523.99;105245;1260;98062;-73
2023/03/11 08:28:38;;;;;;;6.10;3.20;;;;;;;6.59;71.15;96529.13;105336;1263;101121;-74
2023/03/11 08:31:20;;;;;;;6.20;3.00;;;;;;;6.59;70.85;96538.11;105176;1267;97994;-74
2023/03/11 08:33:49;;;;;;;9.40;3.90;;;;;;;6.45;70.93;96538.58;105742;1260;97943;-76
2023/03/11 08:36:16;;;;;;;7.70;3.00;;;;;;;6.41;70.81;96547.91;105315;1262;98436;-79
2023/03/11 08:38:43;;;;;;;6.10;2.70;;;;;;;6.29;70.87;96550.48;105684;1254;97942;-78
2023/03/11 08:41:10;;;;;;;5.80;2.40;;;;;;;6.22;70.72;96561.15;105638;1254;99292;-79
2023/03/11 08:43:37;;;;;;;4.00;2.40;;;;;;;6.09;70.52;96563.55;105153;1260;97985;-79
2023/03/11 08:46:08;;;;;;;4.70;2.60;;;;;;;5.92;70.58;96563.21;105342;1259;98012;-79
2023/03/11 08:48:36;;;;;;;9.10;3.20;;;;;;;5.78;70.92;96554.98;105499;1254;98433;-78
2023/03/11 08:51:11;;;;;;;11.90;4.50;;;;;;;5.72;71.08;96574.18;105242;1254;111251;-76
2023/03/11 08:53:38;;;;;;;4.30;2.20;;;;;;;5.64;70.92;96585.14;105486;1257;100924;-77
2023/03/11 08:56:05;;;;;;;6.30;2.80;;;;;;;5.48;70.94;96589.41;105002;1264;98894;-77
2023/03/11 08:58:31;;;;;;;3.30;2.30;;;;;;;5.41;71.25;96603.96;105437;1254;97969;-77
2023/03/11 09:00:58;;;;;;;10.80;4.10;;;;;;;5.33;71.29;96605.30;105383;1254;98061;-75
2023/03/11 09:03:25;;;;;;;18.10;6.90;;;;;;;5.27;71.33;96607.97;105797;1260;97956;-76
2023/03/11 09:06:03;;;;;;;25.90;8.50;;;;;;;5.19;71.53;96610.95;105312;1261;98868;-76
2023/03/11 09:08:30;;;;;;;17.90;6.80;;;;;;;5.08;71.59;96613.05;105355;1263;98270;-74
2023/03/11 09:10:57;;;;;;;18.50;7.30;;;;;;;4.95;71.95;96618.59;105662;1258;99140;-76
2023/03/11 09:13:23;;;;;;;16.10;6.30;;;;;;;4.84;71.88;96631.80;105631;1254;98424;-74
2023/03/11 09:15:51;;;;;;;8.90;3.60;;;;;;;4.79;72.12;96632.43;105399;1254;98061;-76
2023/03/11 09:18:18;;;;;;;12.00;5.20;;;;;;;4.76;72.14;96637.96;105344;1254;98316;-77
2023/03/11 09:20:45;;;;;;;11.80;5.10;;;;;;;4.74;71.85;96640.21;105244;1255;99192;-75
2023/03/11 09:23:15;;;;;;;15.00;6.10;;;;;;;4.71;71.68;96632.02;105271;1258;99368;-76
2023/03/11 09:25:42;;;;;;;8.50;3.90;;;;;;;4.81;71.69;96642.13;105424;1254;111050;-75
2023/03/11 09:28:08;;;;;;;8.10;3.20;;;;;;;5.00;71.40;96650.98;105265;1267;98059;-73
2023/03/11 09:30:35;;;;;;;17.20;6.70;;;;;;;5.11;71.05;96661.73;105363;1260;97955;-76
2023/03/11 09:33:02;;;;;;;19.20;8.50;;;;;;;5.10;70.94;96664.17;105496;1260;98437;-75
2023/03/11 09:35:29;;;;;;;19.00;6.30;;;;;;;5.03;70.85;96667.70;106200;1255;97979;-75
2023/03/11 09:37:56;;;;;;;13.00;5.10;;;;;;;4.88;70.81;96676.94;105105;1267;99480;-76
2023/03/11 09:40:26;;;;;;;17.40;5.20;;;;;;;4.76;70.82;96679.76;105279;1261;98161;-75
2023/03/11 09:42:55;;;;;;;12.30;4.10;;;;;;;4.67;70.59;96674.91;105320;1256;97934;-74
2023/03/11 09:45:38;;;;;;;11.60;4.20;;;;;;;4.60;71.05;96676.02;105552;1254;98383;-75
2023/03/11 09:48:36;;;;;;;8.30;2.80;;;;;;;4.64;71.20;96672.20;105167;1254;111359;-79
2023/03/11 09:51:21;;;;;;;5.40;2.50;;;;;;;4.71;71.14;96671.89;105188;1254;100936;-75
2023/03/11 09:53:58;;;;;;;3.70;2.60;;;;;;;4.68;71.01;96686.23;105416;1261;107248;-74
2023/03/11 09:56:25;;;;;;;6.30;3.10;;;;;;;4.63;71.03;96683.33;105089;1270;97937;-76
2023/03/11 09:59:00;;;;;;;14.80;5.20;;;;;;;4.66;71.12;96679.41;105381;1260;98430;-70
2023/03/11 10:01:32;;;;;;;13.50;4.80;;;;;;;4.84;71.32;96670.27;105288;1263;110682;-73
2023/03/11 10:04:26;;;;;;;20.50;6.60;;;;;;;5.02;71.13;96676.94;105583;1259;100835;-74
2023/03/11 10:06:53;;;;;;;;;;;;;;;5.10;71.05;96684.14;105747;1260;107725;-74
2023/03/11 10:09:32;;;;;;;11.80;4.10;;;;;;;5.09;70.70;96685.33;105754;1254;97912;-73
2023/03/11 10:12:18;;;;;;;11.30;3.70;;;;;;;5.03;70.77;96690.41;105631;1260;98430;-74
2023/03/11 10:15:01;;;;;;;14.40;4.50;;;;;;;4.97;70.96;96692.55;105319;1260;111591;-76
2023/03/11 10:17:49;;;;;;;18.60;6.40;;;;;;;5.00;70.89;96694.56;106639;1254;100451;-75
2023/03/11 10:20:33;;;;;;;18.00;6.10;;;;;;;5.05;71.08;96699.90;105232;1260;107665;-77
2023/03/11 10:23:14;;;;;;;14.40;5.40;;;;;;;5.13;70.93;96700.55;105507;1260;98063;-75
2023/03/11 10:26:03;;;;;;;17.90;6.80;;;;;;;5.24;70.91;96697.39;105493;1259;99256;-75
2023/03/11 10:29:18;;;;;;;15.00;4.40;;;;;;;5.36;70.69;96700.31;105407;1264;111280;-73
2023/03/11 10:32:15;;;;;;;12.20;4.40;;;;;;;5.47;70.51;96699.66;105371;1254;99887;-79
2023/03/11 10:34:53;;;;;;;13.80;5.40;;;;;;;5.53;70.16;96696.87;105264;1260;107818;-73
2023/03/11 10:37:23;;;;;;;7.00;3.70;;;;;;;5.42;69.52;96693.27;105251;1260;97974;-76
2023/03/11 10:39:51;;;;;;;9.30;3.90;;;;;;;5.30;69.87;96703.00;105740;1260;98424;-74
2023/03/11 10:42:23;;;;;;;10.90;4.30;;;;;;;5.27;69.87;96701.98;105487;1259;111172;-75
2023/03/11 10:44:50;;;;;;;12.70;5.20;;;;;;;5.42;70.25;96697.18;105470;1260;100264;-73
2023/03/11 10:47:21;;;;;;;6.50;3.80;;;;;;;5.53;70.08;96695.20;105652;1258;107613;-74
2023/03/11 10:49:49;;;;;;;10.40;4.00;;;;;;;5.59;69.71;96699.15;105229;1257;97941;-79
2023/03/11 10:52:15;;;;;;;8.40;3.80;;;;;;;5.51;69.46;96704.10;105334;1261;97983;-82
2023/03/11 10:54:58;;;;;;;10.00;4.20;;;;;;;5.44;70.01;96708.40;105637;1254;111341;-73
2023/03/11 10:57:34;;;;;;;6.20;3.60;;;;;;;5.35;70.30;96708.66;105257;1254;100736;-75
2023/03/11 11:00:16;;;;;;;7.20;3.80;;;;;;;5.29;70.44;96707.80;104916;1261;107418;-75
2023/03/11 11:02:52;;;;;;;6.30;3.60;;;;;;;5.25;70.39;96708.34;105099;1254;98514;-74
2023/03/11 11:05:19;;;;;;;9.20;4.20;;;;;;;5.13;69.84;96704.48;105588;1254;98426;-75
2023/03/11 11:08:00;;;;;;;10.00;4.10;;;;;;;5.04;69.88;96704.33;105494;1257;97864;-73
2023/03/11 11:10:28;;;;;;;7.50;3.70;;;;;;;5.08;70.11;96711.20;105189;1268;100852;-72
2023/03/11 11:13:01;;;;;;;9.80;4.20;;;;;;;5.01;70.35;96722.15;105384;1270;97924;-73
2023/03/11 11:15:38;;;;;;;8.00;3.90;;;;;;;5.07;70.41;96720.81;107081;1258;97864;-74
2023/03/11 11:18:15;;;;;;;9.30;4.70;;;;;;;5.31;70.51;96724.20;107233;1254;97882;-74
2023/03/11 11:21:01;;;;;;;7.20;3.90;;;;;;;5.51;70.08;96718.53;105463;1257;111087;-74
2023/03/11 11:23:39;;;;;;;7.90;4.10;;;;;;;5.62;69.99;96718.73;108577;1254;100943;-82
2023/03/11 11:26:15;;;;;;;8.00;4.00;;;;;;;5.81;70.44;96723.73;108370;1254;108303;-74
2023/03/11 11:28:43;;;;;;;6.60;3.40;;;;;;;5.89;69.97;96729.36;108063;1254;97935;-71
2023/03/11 11:31:24;;;;;;;6.50;4.00;;;;;;;5.81;69.65;96734.98;105564;1258;98344;-74
2023/03/11 11:33:55;;;;;;;8.40;3.90;;;;;;;5.74;69.94;96734.77;105584;1254;111274;-75
2023/03/11 11:36:34;;;;;;;7.30;3.90;;;;;;;5.63;69.61;96744.16;105701;1258;101171;-75
2023/03/11 11:39:10;;;;;;;8.20;4.00;;;;;;;5.62;69.58;96748.96;105342;1254;108328;-72